sensor_id;sensor_type;location;lat;lon;timestamp;pressure;altitude;pressure_sealevel;temperature;humidity
13314;BME280;6725;48.112;11.604;2022-08-16T00:00:41;94690.69;;;20.08;100.00
13314;BME280;6725;48.112;11.604;2022-08-16T00:03:08;94679.53;;;20.03;100.00
13314;BME280;6725;48.112;11.604;2022-08-16T00:05:34;94676.75;;;20.03;100.00
13314;BME280;6725;48.112;11.604;2022-08-16T00:07:59;94659.47;;;19.93;100.00
13314;BME280;6725;48.112;11.604;2022-08-16T00:10:27;94656.78;;;19.84;100.00
13314;BME280;6725;48.112;11.604;2022-08-16T00:12:53;94659.88;;;19.86;100.00
13314;BME280;6725;48.112;11.604;2022-08-16T00:15:33;94658.31;;;19.85;100.00
13314;BME280;6725;48.112;11.604;2022-08-16T00:17:58;94665.97;;;19.90;100.00
13314;BME280;6725;48.112;11.604;2022-08-16T00:20:24;94653.63;;;19.91;100.00
13314;BME280;6725;48.112;11.604;2022-08-16T00:22:49;94642.47;;;19.86;100.00
13314;BME280;6725;48.112;11.604;2022-08-16T00:25:17;94651.25;;;19.84;100.00
13314;BME280;6725;48.112;11.604;2022-08-16T00:27:42;94646.97;;;19.83;100.00
13314;BME280;6725;48.112;11.604;2022-08-16T00:30:11;94641.94;;;19.67;100.00
13314;BME280;6725;48.112;11.604;2022-08-16T00:32:38;94636.09;;;19.65;100.00
13314;BME280;6725;48.112;11.604;2022-08-16T00:35:07;94629.88;;;19.70;100.00
13314;BME280;6725;48.112;11.604;2022-08-16T00:37:32;94634.44;;;19.73;100.00
13314;BME280;6725;48.112;11.604;2022-08-16T00:39:58;94630.94;;;19.73;100.00
13314;BME280;6725;48.112;11.604;2022-08-16T00:42:25;94632.72;;;19.76;100.00
13314;BME280;6725;48.112;11.604;2022-08-16T00:44:54;94637.53;;;19.75;100.00
13314;BME280;6725;48.112;11.604;2022-08-16T00:47:22;94637.53;;;19.75;100.00
13314;BME280;6725;48.112;11.604;2022-08-16T00:49:48;94632.47;;;19.74;100.00
13314;BME280;6725;48.112;11.604;2022-08-16T00:52:13;94639.44;;;19.69;100.00
13314;BME280;6725;48.112;11.604;2022-08-16T00:54:39;94636.97;;;19.71;100.00
13314;BME280;6725;48.112;11.604;2022-08-16T00:57:05;94637.91;;;19.68;100.00
13314;BME280;6725;48.112;11.604;2022-08-16T00:59:35;94637.44;;;19.70;100.00
13314;BME280;6725;48.112;11.604;2022-08-16T01:02:04;94624.31;;;19.70;100.00
13314;BME280;6725;48.112;11.604;2022-08-16T01:04:30;94622.63;;;19.73;100.00
13314;BME280;6725;48.112;11.604;2022-08-16T01:06:58;94630.44;;;19.74;100.00
13314;BME280;6725;48.112;11.604;2022-08-16T01:09:24;94626.53;;;19.66;100.00
13314;BME280;6725;48.112;11.604;2022-08-16T01:11:50;94622.53;;;19.67;100.00
13314;BME280;6725;48.112;11.604;2022-08-16T01:14:25;94630.06;;;19.67;100.00
13314;BME280;6725;48.112;11.604;2022-08-16T01:16:52;94625.78;;;19.66;100.00
13314;BME280;6725;48.112;11.604;2022-08-16T01:19:41;94621.94;;;19.63;100.00
13314;BME280;6725;48.112;11.604;2022-08-16T01:22:18;94619.78;;;19.67;100.00
13314;BME280;6725;48.112;11.604;2022-08-16T01:24:55;94612.69;;;19.66;100.00
13314;BME280;6725;48.112;11.604;2022-08-16T01:27:45;94619.19;;;19.63;100.00
13314;BME280;6725;48.112;11.604;2022-08-16T01:30:18;94621.69;;;19.61;100.00
13314;BME280;6725;48.112;11.604;2022-08-16T01:32:45;94624.16;;;19.59;100.00
13314;BME280;6725;48.112;11.604;2022-08-16T01:35:17;94615.56;;;19.57;100.00
13314;BME280;6725;48.112;11.604;2022-08-16T01:37:47;94625.41;;;19.58;100.00
13314;BME280;6725;48.112;11.604;2022-08-16T01:40:14;94620.72;;;19.64;100.00
13314;BME280;6725;48.112;11.604;2022-08-16T01:42:42;94617.00;;;19.67;100.00
13314;BME280;6725;48.112;11.604;2022-08-16T01:45:08;94625.00;;;19.65;100.00
13314;BME280;6725;48.112;11.604;2022-08-16T01:47:35;94621.28;;;19.68;100.00
13314;BME280;6725;48.112;11.604;2022-08-16T01:50:04;94621.28;;;19.68;100.00
13314;BME280;6725;48.112;11.604;2022-08-16T01:52:30;94619.78;;;19.67;100.00
13314;BME280;6725;48.112;11.604;2022-08-16T01:54:56;94618.22;;;19.66;100.00
13314;BME280;6725;48.112;11.604;2022-08-16T01:57:22;94615.75;;;19.68;100.00
13314;BME280;6725;48.112;11.604;2022-08-16T01:59:47;94614.78;;;19.71;100.00
13314;BME280;6725;48.112;11.604;2022-08-16T02:02:12;94611.53;;;19.73;100.00
13314;BME280;6725;48.112;11.604;2022-08-16T02:04:38;94617.56;;;19.71;100.00
13314;BME280;6725;48.112;11.604;2022-08-16T02:07:03;94602.94;;;19.71;100.00
13314;BME280;6725;48.112;11.604;2022-08-16T02:09:34;94603.72;;;19.71;100.00
13314;BME280;6725;48.112;11.604;2022-08-16T02:12:01;94594.31;;;19.69;100.00
13314;BME280;6725;48.112;11.604;2022-08-16T02:14:29;94593.50;;;19.63;100.00
13314;BME280;6725;48.112;11.604;2022-08-16T02:16:56;94605.31;;;19.63;100.00
13314;BME280;6725;48.112;11.604;2022-08-16T02:19:23;94602.00;;;19.59;100.00
13314;BME280;6725;48.112;11.604;2022-08-16T02:21:52;94594.94;;;19.58;100.00
13314;BME280;6725;48.112;11.604;2022-08-16T02:24:18;94602.19;;;19.56;100.00
13314;BME280;6725;48.112;11.604;2022-08-16T02:26:45;94597.81;;;19.49;100.00
13314;BME280;6725;48.112;11.604;2022-08-16T02:29:11;94604.78;;;19.44;100.00
13314;BME280;6725;48.112;11.604;2022-08-16T02:31:36;94602.97;;;19.41;100.00
13314;BME280;6725;48.112;11.604;2022-08-16T02:34:02;94593.63;;;19.39;100.00
13314;BME280;6725;48.112;11.604;2022-08-16T02:36:27;94586.19;;;19.30;100.00
13314;BME280;6725;48.112;11.604;2022-08-16T02:38:53;94571.66;;;19.21;100.00
13314;BME280;6725;48.112;11.604;2022-08-16T02:41:18;94565.25;;;19.15;100.00
13314;BME280;6725;48.112;11.604;2022-08-16T02:43:44;94557.31;;;19.08;100.00
13314;BME280;6725;48.112;11.604;2022-08-16T02:46:09;94545.13;;;19.00;100.00
13314;BME280;6725;48.112;11.604;2022-08-16T02:48:36;94547.81;;;18.94;100.00
13314;BME280;6725;48.112;11.604;2022-08-16T02:51:03;94545.41;;;18.87;100.00
13314;BME280;6725;48.112;11.604;2022-08-16T02:53:30;94544.56;;;18.81;100.00
13314;BME280;6725;48.112;11.604;2022-08-16T02:55:56;94540.72;;;18.79;100.00
13314;BME280;6725;48.112;11.604;2022-08-16T02:58:22;94545.69;;;18.75;100.00
13314;BME280;6725;48.112;11.604;2022-08-16T03:00:48;94539.00;;;18.67;100.00
13314;BME280;6725;48.112;11.604;2022-08-16T03:03:13;94532.13;;;18.62;100.00
13314;BME280;6725;48.112;11.604;2022-08-16T03:05:39;94536.34;;;18.58;100.00
13314;BME280;6725;48.112;11.604;2022-08-16T03:08:05;94527.19;;;18.52;100.00
13314;BME280;6725;48.112;11.604;2022-08-16T03:10:30;94516.50;;;18.45;100.00
13314;BME280;6725;48.112;11.604;2022-08-16T03:12:56;94509.03;;;18.36;100.00
13314;BME280;6725;48.112;11.604;2022-08-16T03:15:21;94502.16;;;18.32;100.00
13314;BME280;6725;48.112;11.604;2022-08-16T03:17:47;94489.91;;;18.24;100.00
13314;BME280;6725;48.112;11.604;2022-08-16T03:20:14;94480.41;;;18.25;100.00
13314;BME280;6725;48.112;11.604;2022-08-16T03:22:40;94491.16;;;18.23;100.00
13314;BME280;6725;48.112;11.604;2022-08-16T03:25:11;94494.28;;;18.16;100.00
13314;BME280;6725;48.112;11.604;2022-08-16T03:27:37;94487.91;;;18.10;100.00
13314;BME280;6725;48.112;11.604;2022-08-16T03:30:10;94485.78;;;18.05;100.00
13314;BME280;6725;48.112;11.604;2022-08-16T03:32:36;94482.44;;;18.01;100.00
13314;BME280;6725;48.112;11.604;2022-08-16T03:35:01;94481.88;;;17.97;100.00
13314;BME280;6725;48.112;11.604;2022-08-16T03:37:27;94480.34;;;17.96;100.00
13314;BME280;6725;48.112;11.604;2022-08-16T03:39:52;94466.59;;;17.87;100.00
13314;BME280;6725;48.112;11.604;2022-08-16T03:42:17;94461.16;;;17.78;100.00
13314;BME280;6725;48.112;11.604;2022-08-16T03:44:43;94456.94;;;17.68;100.00
13314;BME280;6725;48.112;11.604;2022-08-16T03:47:08;94442.41;;;17.58;100.00
13314;BME280;6725;48.112;11.604;2022-08-16T03:49:34;94427.91;;;17.49;100.00
13314;BME280;6725;48.112;11.604;2022-08-16T03:52:01;94412.28;;;17.46;100.00
13314;BME280;6725;48.112;11.604;2022-08-16T03:54:27;94397.28;;;17.38;100.00
13314;BME280;6725;48.112;11.604;2022-08-16T03:56:52;94394.06;;;17.39;100.00
13314;BME280;6725;48.112;11.604;2022-08-16T03:59:18;94390.25;;;17.37;100.00
13314;BME280;6725;48.112;11.604;2022-08-16T04:01:43;94388.72;;;17.36;100.00
13314;BME280;6725;48.112;11.604;2022-08-16T04:04:08;94394.22;;;17.36;100.00
13314;BME280;6725;48.112;11.604;2022-08-16T04:06:34;94384.16;;;17.33;100.00
13314;BME280;6725;48.112;11.604;2022-08-16T04:08:59;94378.63;;;17.33;100.00
13314;BME280;6725;48.112;11.604;2022-08-16T04:11:24;94385.69;;;17.34;100.00
13314;BME280;6725;48.112;11.604;2022-08-16T04:13:50;94377.41;;;17.34;100.00
13314;BME280;6725;48.112;11.604;2022-08-16T04:16:16;94381.69;;;17.35;100.00
13314;BME280;6725;48.112;11.604;2022-08-16T04:18:42;94376.34;;;17.31;100.00
13314;BME280;6725;48.112;11.604;2022-08-16T04:21:08;94361.19;;;17.27;100.00
13314;BME280;6725;48.112;11.604;2022-08-16T04:23:33;94363.94;;;17.27;100.00
13314;BME280;6725;48.112;11.604;2022-08-16T04:25:58;94350.94;;;17.27;100.00
13314;BME280;6725;48.112;11.604;2022-08-16T04:28:24;94355.19;;;17.28;100.00
13314;BME280;6725;48.112;11.604;2022-08-16T04:30:50;94351.97;;;17.30;100.00
13314;BME280;6725;48.112;11.604;2022-08-16T04:33:16;94352.72;;;17.30;100.00
13314;BME280;6725;48.112;11.604;2022-08-16T04:35:41;94361.66;;;17.25;100.00
13314;BME280;6725;48.112;11.604;2022-08-16T04:38:07;94369.47;;;17.27;100.00
13314;BME280;6725;48.112;11.604;2022-08-16T04:40:32;94356.91;;;17.26;100.00
13314;BME280;6725;48.112;11.604;2022-08-16T04:42:58;94356.72;;;17.29;100.00
13314;BME280;6725;48.112;11.604;2022-08-16T04:45:26;94355.00;;;17.32;100.00
13314;BME280;6725;48.112;11.604;2022-08-16T04:47:51;94364.00;;;17.41;100.00
13314;BME280;6725;48.112;11.604;2022-08-16T04:50:23;94363.50;;;17.66;100.00
13314;BME280;6725;48.112;11.604;2022-08-16T04:52:51;94409.47;;;17.93;100.00
13314;BME280;6725;48.112;11.604;2022-08-16T04:55:20;94450.28;;;18.27;100.00
13314;BME280;6725;48.112;11.604;2022-08-16T04:57:48;94496.28;;;18.68;100.00
13314;BME280;6725;48.112;11.604;2022-08-16T05:00:18;94540.94;;;19.33;100.00
13314;BME280;6725;48.112;11.604;2022-08-16T05:02:44;94598.00;;;19.60;100.00
13314;BME280;6725;48.112;11.604;2022-08-16T05:05:10;94610.03;;;19.42;100.00
13314;BME280;6725;48.112;11.604;2022-08-16T05:07:36;94600.66;;;19.11;100.00
13314;BME280;6725;48.112;11.604;2022-08-16T05:10:04;94589.41;;;18.85;100.00
13314;BME280;6725;48.112;11.604;2022-08-16T05:12:30;94572.22;;;18.67;100.00
13314;BME280;6725;48.112;11.604;2022-08-16T05:14:56;94557.81;;;18.63;100.00
13314;BME280;6725;48.112;11.604;2022-08-16T05:17:21;94558.69;;;18.69;100.00
13314;BME280;6725;48.112;11.604;2022-08-16T05:19:47;94563.94;;;18.81;100.00
13314;BME280;6725;48.112;11.604;2022-08-16T05:22:13;94579.50;;;18.93;100.00
13314;BME280;6725;48.112;11.604;2022-08-16T05:24:39;94576.72;;;19.08;100.00
13314;BME280;6725;48.112;11.604;2022-08-16T05:27:04;94598.78;;;19.17;100.00
13314;BME280;6725;48.112;11.604;2022-08-16T05:29:30;94601.38;;;19.35;100.00
13314;BME280;6725;48.112;11.604;2022-08-16T05:31:55;94615.41;;;19.46;100.00
13314;BME280;6725;48.112;11.604;2022-08-16T05:34:20;94627.31;;;19.52;100.00
13314;BME280;6725;48.112;11.604;2022-08-16T05:36:47;94649.28;;;20.05;100.00
13314;BME280;6725;48.112;11.604;2022-08-16T05:39:14;94695.22;;;20.60;100.00
13314;BME280;6725;48.112;11.604;2022-08-16T05:41:39;94712.00;;;20.91;100.00
13314;BME280;6725;48.112;11.604;2022-08-16T05:44:05;94712.44;;;20.64;100.00
13314;BME280;6725;48.112;11.604;2022-08-16T05:46:30;94712.91;;;20.43;100.00
13314;BME280;6725;48.112;11.604;2022-08-16T05:48:59;94699.38;;;20.30;100.00
13314;BME280;6725;48.112;11.604;2022-08-16T05:51:25;94708.69;;;20.67;100.00
13314;BME280;6725;48.112;11.604;2022-08-16T05:53:50;94738.25;;;21.76;100.00
13314;BME280;6725;48.112;11.604;2022-08-16T05:56:15;94782.75;;;23.06;100.00
13314;BME280;6725;48.112;11.604;2022-08-16T05:58:41;94801.31;;;23.84;100.00
13314;BME280;6725;48.112;11.604;2022-08-16T06:01:07;94822.22;;;24.43;100.00
13314;BME280;6725;48.112;11.604;2022-08-16T06:03:32;94831.06;;;25.30;100.00
13314;BME280;6725;48.112;11.604;2022-08-16T06:05:57;94836.78;;;25.71;100.00
13314;BME280;6725;48.112;11.604;2022-08-16T06:08:23;94841.28;;;26.36;100.00
13314;BME280;6725;48.112;11.604;2022-08-16T06:10:48;94845.53;;;26.83;100.00
13314;BME280;6725;48.112;11.604;2022-08-16T06:13:14;94844.28;;;27.08;96.61
13314;BME280;6725;48.112;11.604;2022-08-16T06:15:39;94844.50;;;27.64;92.04
13314;BME280;6725;48.112;11.604;2022-08-16T06:18:05;94841.13;;;27.89;88.81
13314;BME280;6725;48.112;11.604;2022-08-16T06:20:30;94843.94;;;28.26;84.25
13314;BME280;6725;48.112;11.604;2022-08-16T06:22:56;94843.56;;;28.86;82.01
13314;BME280;6725;48.112;11.604;2022-08-16T06:25:23;94843.91;;;29.27;78.79
13314;BME280;6725;48.112;11.604;2022-08-16T06:27:50;94844.59;;;29.46;76.76
13314;BME280;6725;48.112;11.604;2022-08-16T06:30:16;94839.28;;;29.94;74.10
13314;BME280;6725;48.112;11.604;2022-08-16T06:32:41;94842.28;;;30.22;72.73
13314;BME280;6725;48.112;11.604;2022-08-16T06:35:07;94846.25;;;29.80;72.31
13314;BME280;6725;48.112;11.604;2022-08-16T06:37:32;94851.47;;;30.36;69.86
13314;BME280;6725;48.112;11.604;2022-08-16T06:39:58;94853.22;;;30.13;68.93
13314;BME280;6725;48.112;11.604;2022-08-16T06:42:23;94849.84;;;30.27;67.78
13314;BME280;6725;48.112;11.604;2022-08-16T06:44:49;94863.16;;;30.40;67.19
13314;BME280;6725;48.112;11.604;2022-08-16T06:47:15;94855.50;;;30.61;66.24
13314;BME280;6725;48.112;11.604;2022-08-16T06:49:40;94858.13;;;30.59;63.96
13314;BME280;6725;48.112;11.604;2022-08-16T06:52:06;94854.59;;;31.20;62.11
13314;BME280;6725;48.112;11.604;2022-08-16T06:54:33;94857.72;;;30.88;62.02
13314;BME280;6725;48.112;11.604;2022-08-16T06:56:59;94862.56;;;32.34;55.98
13314;BME280;6725;48.112;11.604;2022-08-16T06:59:25;94851.91;;;31.84;56.02
13314;BME280;6725;48.112;11.604;2022-08-16T07:01:50;94858.13;;;32.53;54.79
13314;BME280;6725;48.112;11.604;2022-08-16T07:04:16;94853.97;;;33.42;49.46
13314;BME280;6725;48.112;11.604;2022-08-16T07:06:42;94859.03;;;33.81;46.67
13314;BME280;6725;48.112;11.604;2022-08-16T07:09:08;94860.31;;;32.90;49.77
13314;BME280;6725;48.112;11.604;2022-08-16T07:11:35;94858.50;;;33.38;49.22
13314;BME280;6725;48.112;11.604;2022-08-16T07:14:01;94859.69;;;34.74;43.73
13314;BME280;6725;48.112;11.604;2022-08-16T07:16:27;94861.06;;;34.66;41.08
13314;BME280;6725;48.112;11.604;2022-08-16T07:18:52;94856.44;;;35.42;40.06
13314;BME280;6725;48.112;11.604;2022-08-16T07:21:17;94851.22;;;35.31;40.23
13314;BME280;6725;48.112;11.604;2022-08-16T07:23:44;94851.16;;;35.63;38.13
13314;BME280;6725;48.112;11.604;2022-08-16T07:26:15;94847.53;;;36.04;36.82
13314;BME280;6725;48.112;11.604;2022-08-16T07:28:42;94862.50;;;35.87;36.17
13314;BME280;6725;48.112;11.604;2022-08-16T07:31:07;94850.00;;;34.85;38.26
13314;BME280;6725;48.112;11.604;2022-08-16T07:33:34;94845.94;;;35.52;36.37
13314;BME280;6725;48.112;11.604;2022-08-16T07:36:01;94842.31;;;35.27;37.12
13314;BME280;6725;48.112;11.604;2022-08-16T07:38:26;94844.88;;;36.40;35.65
13314;BME280;6725;48.112;11.604;2022-08-16T07:40:53;94846.28;;;36.66;33.43
13314;BME280;6725;48.112;11.604;2022-08-16T07:43:20;94846.69;;;36.79;33.00
13314;BME280;6725;48.112;11.604;2022-08-16T07:45:45;94845.34;;;36.63;33.40
13314;BME280;6725;48.112;11.604;2022-08-16T07:48:10;94848.81;;;36.88;32.49
13314;BME280;6725;48.112;11.604;2022-08-16T07:50:36;94847.19;;;36.00;33.08
13314;BME280;6725;48.112;11.604;2022-08-16T07:53:01;94841.56;;;36.60;32.89
13314;BME280;6725;48.112;11.604;2022-08-16T07:55:27;94846.28;;;37.45;31.35
13314;BME280;6725;48.112;11.604;2022-08-16T07:57:52;94848.34;;;37.71;30.56
13314;BME280;6725;48.112;11.604;2022-08-16T08:00:17;94845.38;;;36.46;31.76
13314;BME280;6725;48.112;11.604;2022-08-16T08:02:45;94850.38;;;37.25;32.18
13314;BME280;6725;48.112;11.604;2022-08-16T08:05:10;94844.81;;;37.99;30.25
13314;BME280;6725;48.112;11.604;2022-08-16T08:07:35;94849.84;;;37.72;30.19
13314;BME280;6725;48.112;11.604;2022-08-16T08:10:03;94862.44;;;37.69;29.78
13314;BME280;6725;48.112;11.604;2022-08-16T08:12:29;94856.41;;;36.76;31.29
13314;BME280;6725;48.112;11.604;2022-08-16T08:14:55;94854.06;;;35.80;32.53
13314;BME280;6725;48.112;11.604;2022-08-16T08:17:20;94853.22;;;36.72;31.33
13314;BME280;6725;48.112;11.604;2022-08-16T08:19:47;94851.13;;;37.16;30.94
13314;BME280;6725;48.112;11.604;2022-08-16T08:22:13;94854.19;;;36.40;31.51
13314;BME280;6725;48.112;11.604;2022-08-16T08:24:38;94859.47;;;36.27;32.26
13314;BME280;6725;48.112;11.604;2022-08-16T08:27:06;94856.22;;;36.74;30.74
13314;BME280;6725;48.112;11.604;2022-08-16T08:29:34;94864.84;;;37.10;30.69
13314;BME280;6725;48.112;11.604;2022-08-16T08:32:00;94853.53;;;38.96;28.88
13314;BME280;6725;48.112;11.604;2022-08-16T08:34:26;94857.06;;;39.25;27.69
13314;BME280;6725;48.112;11.604;2022-08-16T08:36:52;94863.94;;;40.87;25.48
13314;BME280;6725;48.112;11.604;2022-08-16T08:39:18;94857.06;;;41.13;25.04
13314;BME280;6725;48.112;11.604;2022-08-16T08:41:44;94857.06;;;41.13;25.04
13314;BME280;6725;48.112;11.604;2022-08-16T08:44:12;94868.38;;;39.23;26.12
13314;BME280;6725;48.112;11.604;2022-08-16T08:46:37;94863.47;;;38.95;26.84
13314;BME280;6725;48.112;11.604;2022-08-16T08:49:03;94856.31;;;37.73;28.65
13314;BME280;6725;48.112;11.604;2022-08-16T08:51:32;94848.22;;;37.79;29.24
13314;BME280;6725;48.112;11.604;2022-08-16T08:53:57;94856.44;;;38.49;28.71
13314;BME280;6725;48.112;11.604;2022-08-16T08:56:23;94860.31;;;39.51;26.75
13314;BME280;6725;48.112;11.604;2022-08-16T08:58:48;94861.34;;;39.55;26.51
13314;BME280;6725;48.112;11.604;2022-08-16T09:01:16;94854.34;;;37.75;28.38
13314;BME280;6725;48.112;11.604;2022-08-16T09:03:43;94856.84;;;36.99;29.54
13314;BME280;6725;48.112;11.604;2022-08-16T09:06:08;94845.72;;;37.20;29.95
13314;BME280;6725;48.112;11.604;2022-08-16T09:08:34;94848.69;;;36.86;30.38
13314;BME280;6725;48.112;11.604;2022-08-16T09:11:00;94848.56;;;37.20;28.96
13314;BME280;6725;48.112;11.604;2022-08-16T09:13:25;94850.38;;;36.55;30.49
13314;BME280;6725;48.112;11.604;2022-08-16T09:15:52;94852.88;;;36.68;31.14
13314;BME280;6725;48.112;11.604;2022-08-16T09:18:20;94842.09;;;35.81;31.89
13314;BME280;6725;48.112;11.604;2022-08-16T09:20:46;94845.00;;;36.76;30.80
13314;BME280;6725;48.112;11.604;2022-08-16T09:23:12;94840.06;;;37.30;30.50
13314;BME280;6725;48.112;11.604;2022-08-16T09:25:38;94841.97;;;37.54;29.41
13314;BME280;6725;48.112;11.604;2022-08-16T09:28:04;94840.53;;;37.62;29.41
13314;BME280;6725;48.112;11.604;2022-08-16T09:30:30;94838.84;;;38.33;29.02
13314;BME280;6725;48.112;11.604;2022-08-16T09:32:58;94840.91;;;38.99;27.48
13314;BME280;6725;48.112;11.604;2022-08-16T09:35:23;94839.13;;;39.75;27.16
13314;BME280;6725;48.112;11.604;2022-08-16T09:37:50;94843.59;;;40.50;25.43
13314;BME280;6725;48.112;11.604;2022-08-16T09:40:16;94836.78;;;40.13;26.84
13314;BME280;6725;48.112;11.604;2022-08-16T09:42:42;94837.16;;;39.47;26.76
13314;BME280;6725;48.112;11.604;2022-08-16T09:45:08;94841.41;;;39.26;27.04
13314;BME280;6725;48.112;11.604;2022-08-16T09:47:34;94845.69;;;38.02;28.70
13314;BME280;6725;48.112;11.604;2022-08-16T09:50:05;94833.53;;;38.87;27.82
13314;BME280;6725;48.112;11.604;2022-08-16T09:52:31;94834.63;;;38.34;27.21
13314;BME280;6725;48.112;11.604;2022-08-16T09:54:56;94834.31;;;38.30;27.93
13314;BME280;6725;48.112;11.604;2022-08-16T09:57:22;94837.72;;;37.91;28.18
13314;BME280;6725;48.112;11.604;2022-08-16T09:59:47;94830.38;;;37.97;28.28
13314;BME280;6725;48.112;11.604;2022-08-16T10:02:12;94839.72;;;38.07;27.61
13314;BME280;6725;48.112;11.604;2022-08-16T10:04:38;94828.03;;;37.22;28.56
13314;BME280;6725;48.112;11.604;2022-08-16T10:07:03;94827.97;;;36.86;28.75
13314;BME280;6725;48.112;11.604;2022-08-16T10:09:29;94824.28;;;36.49;29.44
13314;BME280;6725;48.112;11.604;2022-08-16T10:11:54;94824.59;;;35.85;29.58
13314;BME280;6725;48.112;11.604;2022-08-16T10:14:38;94825.63;;;36.14;29.28
13314;BME280;6725;48.112;11.604;2022-08-16T10:17:05;94824.28;;;35.98;29.48
13314;BME280;6725;48.112;11.604;2022-08-16T10:19:31;94819.94;;;35.97;29.27
13314;BME280;6725;48.112;11.604;2022-08-16T10:21:56;94824.88;;;35.96;29.09
13314;BME280;6725;48.112;11.604;2022-08-16T10:24:22;94822.84;;;34.67;31.60
13314;BME280;6725;48.112;11.604;2022-08-16T10:26:48;94816.41;;;35.47;30.74
13314;BME280;6725;48.112;11.604;2022-08-16T10:29:14;94822.03;;;34.74;31.41
13314;BME280;6725;48.112;11.604;2022-08-16T10:31:40;94819.19;;;34.42;32.11
13314;BME280;6725;48.112;11.604;2022-08-16T10:34:06;94822.03;;;33.12;33.60
13314;BME280;6725;48.112;11.604;2022-08-16T10:36:32;94821.97;;;33.79;33.92
13314;BME280;6725;48.112;11.604;2022-08-16T10:38:57;94817.44;;;32.71;35.42
13314;BME280;6725;48.112;11.604;2022-08-16T10:41:23;94820.81;;;31.56;38.03
13314;BME280;6725;48.112;11.604;2022-08-16T10:43:49;94815.59;;;31.11;38.28
13314;BME280;6725;48.112;11.604;2022-08-16T10:46:15;94824.91;;;31.75;36.88
13314;BME280;6725;48.112;11.604;2022-08-16T10:48:41;94814.84;;;33.63;33.76
13314;BME280;6725;48.112;11.604;2022-08-16T10:51:07;94818.06;;;33.45;34.25
13314;BME280;6725;48.112;11.604;2022-08-16T10:53:34;94814.31;;;34.20;33.17
13314;BME280;6725;48.112;11.604;2022-08-16T10:56:04;94811.78;;;33.92;33.89
13314;BME280;6725;48.112;11.604;2022-08-16T10:58:30;94821.25;;;32.96;33.98
13314;BME280;6725;48.112;11.604;2022-08-16T11:00:57;94815.97;;;33.00;34.64
13314;BME280;6725;48.112;11.604;2022-08-16T11:03:23;94817.06;;;31.81;36.97
13314;BME280;6725;48.112;11.604;2022-08-16T11:05:48;94821.84;;;30.76;40.38
13314;BME280;6725;48.112;11.604;2022-08-16T11:08:14;94823.63;;;31.56;39.20
13314;BME280;6725;48.112;11.604;2022-08-16T11:10:42;94824.81;;;31.60;38.86
13314;BME280;6725;48.112;11.604;2022-08-16T11:13:09;94821.81;;;31.58;38.83
13314;BME280;6725;48.112;11.604;2022-08-16T11:15:35;94823.56;;;32.04;37.31
13314;BME280;6725;48.112;11.604;2022-08-16T11:18:02;94829.19;;;32.90;36.33
13314;BME280;6725;48.112;11.604;2022-08-16T11:20:28;94822.63;;;34.25;33.23
13314;BME280;6725;48.112;11.604;2022-08-16T11:22:54;94825.25;;;35.10;31.55
13314;BME280;6725;48.112;11.604;2022-08-16T11:25:22;94824.31;;;35.56;30.22
13314;BME280;6725;48.112;11.604;2022-08-16T11:27:48;94820.59;;;35.22;30.56
13314;BME280;6725;48.112;11.604;2022-08-16T11:30:14;94828.47;;;34.35;30.24
13314;BME280;6725;48.112;11.604;2022-08-16T11:32:41;94818.81;;;34.30;31.91
13314;BME280;6725;48.112;11.604;2022-08-16T11:35:16;94816.94;;;33.40;33.78
13314;BME280;6725;48.112;11.604;2022-08-16T11:37:55;94821.44;;;33.89;31.94
13314;BME280;6725;48.112;11.604;2022-08-16T11:40:23;94814.47;;;34.69;31.33
13314;BME280;6725;48.112;11.604;2022-08-16T11:42:50;94809.25;;;34.58;30.52
13314;BME280;6725;48.112;11.604;2022-08-16T11:45:15;94807.63;;;33.93;31.53
13314;BME280;6725;48.112;11.604;2022-08-16T11:47:41;94810.28;;;33.68;32.42
13314;BME280;6725;48.112;11.604;2022-08-16T11:50:07;94807.59;;;34.00;32.51
13314;BME280;6725;48.112;11.604;2022-08-16T11:52:37;94806.09;;;33.92;32.15
13314;BME280;6725;48.112;11.604;2022-08-16T11:55:05;94805.81;;;33.42;32.81
13314;BME280;6725;48.112;11.604;2022-08-16T11:57:31;94798.50;;;32.51;33.59
13314;BME280;6725;48.112;11.604;2022-08-16T11:59:56;94790.38;;;32.40;34.48
13314;BME280;6725;48.112;11.604;2022-08-16T12:02:22;94801.81;;;32.27;35.08
13314;BME280;6725;48.112;11.604;2022-08-16T12:04:47;94797.66;;;32.28;35.28
13314;BME280;6725;48.112;11.604;2022-08-16T12:07:13;94795.31;;;32.04;35.64
13314;BME280;6725;48.112;11.604;2022-08-16T12:09:39;94796.34;;;31.86;35.50
13314;BME280;6725;48.112;11.604;2022-08-16T12:12:04;94785.25;;;31.88;35.48
13314;BME280;6725;48.112;11.604;2022-08-16T12:14:31;94790.13;;;31.80;35.42
13314;BME280;6725;48.112;11.604;2022-08-16T12:16:57;94782.28;;;32.01;35.32
13314;BME280;6725;48.112;11.604;2022-08-16T12:19:24;94788.75;;;32.09;34.68
13314;BME280;6725;48.112;11.604;2022-08-16T12:21:50;94786.16;;;32.26;34.71
13314;BME280;6725;48.112;11.604;2022-08-16T12:24:15;94784.38;;;32.08;33.84
13314;BME280;6725;48.112;11.604;2022-08-16T12:26:41;94775.47;;;31.61;35.21
13314;BME280;6725;48.112;11.604;2022-08-16T12:29:06;94781.34;;;31.63;34.85
13314;BME280;6725;48.112;11.604;2022-08-16T12:31:32;94780.13;;;31.79;35.37
13314;BME280;6725;48.112;11.604;2022-08-16T12:33:57;94787.56;;;31.97;35.09
13314;BME280;6725;48.112;11.604;2022-08-16T12:36:23;94788.16;;;32.03;34.52
13314;BME280;6725;48.112;11.604;2022-08-16T12:38:50;94788.94;;;32.11;33.88
13314;BME280;6725;48.112;11.604;2022-08-16T12:41:15;94791.81;;;31.83;34.61
13314;BME280;6725;48.112;11.604;2022-08-16T12:43:41;94785.06;;;31.86;33.98
13314;BME280;6725;48.112;11.604;2022-08-16T12:46:08;94781.84;;;31.82;33.54
13314;BME280;6725;48.112;11.604;2022-08-16T12:48:34;94778.75;;;31.73;34.27
13314;BME280;6725;48.112;11.604;2022-08-16T12:51:20;94774.59;;;31.74;34.65